Time;durP1;ratioP1;P1;durP2;ratioP2;P2;SDS_P1;SDS_P2;PMS_P1;PMS_P2;Temp;Humidity;BMP_temperature;BMP_pressure;BME280_temperature;BME280_humidity;BME280_pressure;Samples;Min_cycle;Max_cycle;Signal;HPM_P1;HPM_P2
2021/05/09 03:57:09;;;;;;;0.80;0.63;;;5.50;70.30;;;;;;5002149;28;20395;-67
2021/05/09 03:59:35;;;;;;;0.47;0.47;;;5.90;69.00;;;;;;4999521;28;20105;-67
2021/05/09 04:02:01;;;;;;;1.23;0.60;;;6.20;67.70;;;;;;5005900;28;20077;-66
2021/05/09 04:04:26;;;;;;;0.47;0.47;;;6.70;66.60;;;;;;4997660;28;20062;-66
2021/05/09 04:06:52;;;;;;;0.60;0.60;;;7.00;65.40;;;;;;5015417;28;20026;-67
2021/05/09 04:09:18;;;;;;;0.77;0.40;;;7.30;64.40;;;;;;5001639;28;20026;-66
2021/05/09 04:11:44;;;;;;;0.50;0.50;;;7.70;63.00;;;;;;5001177;28;20101;-66
2021/05/09 04:14:09;;;;;;;0.45;0.45;;;7.90;62.20;;;;;;5003471;28;20434;-66
2021/05/09 04:16:35;;;;;;;0.60;0.60;;;8.30;61.80;;;;;;5009274;28;20018;-66
2021/05/09 04:19:01;;;;;;;0.82;0.50;;;8.60;60.60;;;;;;4995316;28;20061;-66
2021/05/09 04:21:26;;;;;;;0.55;0.50;;;8.90;59.70;;;;;;5011053;28;20140;-66
2021/05/09 04:23:52;;;;;;;1.27;0.50;;;9.30;58.80;;;;;;5007390;28;20022;-66
2021/05/09 04:26:18;;;;;;;0.52;0.50;;;9.60;58.20;;;;;;5009133;28;20026;-66
2021/05/09 04:28:43;;;;;;;0.70;0.70;;;9.70;57.90;;;;;;5014913;28;20026;-67
2021/05/09 04:31:09;;;;;;;1.15;0.57;;;9.90;57.10;;;;;;5003268;28;20038;-65
2021/05/09 04:33:35;;;;;;;0.40;0.40;;;10.20;56.70;;;;;;4998919;28;20037;-68
2021/05/09 04:36:01;;;;;;;0.60;0.50;;;10.60;56.30;;;;;;5014657;28;20033;-66
2021/05/09 04:38:26;;;;;;;0.60;0.60;;;10.80;55.80;;;;;;5013016;28;20034;-72
2021/05/09 04:40:52;;;;;;;5.20;0.88;;;11.20;55.40;;;;;;5002958;28;20014;-66
2021/05/09 04:43:19;;;;;;;4.70;0.60;;;12.50;68.60;;;;;;5001267;28;20030;-69
2021/05/09 04:45:50;;;;;;;6.20;0.82;;;14.00;65.70;;;;;;4997113;28;20041;-68
2021/05/09 04:48:16;;;;;;;5.13;1.08;;;15.10;62.30;;;;;;5014393;28;20132;-66
2021/05/09 04:50:42;;;;;;;8.15;0.82;;;15.70;60.00;;;;;;5013675;28;20052;-68
2021/05/09 04:53:24;;;;;;;8.48;0.82;;;16.30;58.70;;;;;;4989002;28;20391;-66
2021/05/09 04:55:50;;;;;;;3.00;0.60;;;16.80;57.30;;;;;;4980026;28;20483;-73
2021/05/09 04:58:16;;;;;;;0.40;0.32;;;16.40;50.00;;;;;;4994353;28;20032;-71
2021/05/09 05:00:42;;;;;;;1.85;0.50;;;15.60;48.40;;;;;;4994308;28;20105;-75
2021/05/09 05:03:07;;;;;;;0.30;0.30;;;15.00;48.50;;;;;;4990766;28;20038;-76
2021/05/09 05:05:33;;;;;;;0.50;0.40;;;14.60;49.00;;;;;;4984429;28;20436;-76
2021/05/09 05:07:59;;;;;;;0.95;0.47;;;14.50;48.70;;;;;;4979243;28;20041;-76
2021/05/09 05:10:25;;;;;;;2.97;0.50;;;14.30;48.50;;;;;;4985057;28;20065;-75
2021/05/09 05:12:50;;;;;;;1.10;0.40;;;14.40;48.20;;;;;;4980157;28;20039;-75
2021/05/09 05:15:16;;;;;;;0.30;0.30;;;14.40;48.10;;;;;;4989332;28;20110;-75
2021/05/09 05:17:42;;;;;;;2.38;0.55;;;14.40;47.80;;;;;;4994327;28;20061;-75
2021/05/09 05:20:08;;;;;;;0.95;0.40;;;14.50;47.60;;;;;;4980880;28;20022;-76
2021/05/09 05:22:34;;;;;;;3.13;0.45;;;14.50;47.40;;;;;;4976915;28;20019;-77
2021/05/09 05:24:59;;;;;;;2.38;0.45;;;14.50;47.40;;;;;;5005017;28;20478;-70
2021/05/09 05:27:25;;;;;;;3.47;0.50;;;14.70;47.10;;;;;;4993489;28;20068;-72
2021/05/09 05:29:51;;;;;;;1.67;0.60;;;14.70;49.30;;;;;;4997910;28;20050;-76
2021/05/09 05:32:16;;;;;;;0.50;0.40;;;14.90;46.70;;;;;;4993957;28;20517;-75
2021/05/09 05:34:42;;;;;;;2.72;0.43;;;14.90;46.40;;;;;;4994297;28;20049;-72
2021/05/09 05:37:08;;;;;;;1.02;0.47;;;15.10;46.10;;;;;;4997736;28;20022;-73
2021/05/09 05:39:34;;;;;;;0.93;0.50;;;15.10;46.10;;;;;;4993928;28;20061;-72
2021/05/09 05:42:00;;;;;;;0.75;0.38;;;15.30;46.00;;;;;;4993781;28;20025;-70
2021/05/09 05:44:26;;;;;;;0.80;0.40;;;15.40;45.30;;;;;;4993813;28;20033;-71
2021/05/09 05:46:52;;;;;;;2.05;0.40;;;15.60;45.00;;;;;;4993961;28;20037;-71
2021/05/09 05:49:18;;;;;;;0.50;0.35;;;15.70;45.00;;;;;;4993267;28;20105;-71
2021/05/09 05:51:43;;;;;;;0.63;0.38;;;15.80;44.70;;;;;;4993373;28;20049;-71
2021/05/09 05:54:09;;;;;;;2.88;0.40;;;15.80;44.60;;;;;;4980375;28;20033;-71
2021/05/09 05:56:35;;;;;;;1.25;0.40;;;15.90;44.50;;;;;;4993269;28;20182;-71
2021/05/09 05:59:00;;;;;;;1.65;0.47;;;15.90;43.90;;;;;;4993688;28;20084;-71
2021/05/09 06:01:26;;;;;;;0.45;0.40;;;16.00;43.80;;;;;;4993517;28;20072;-71
2021/05/09 06:03:52;;;;;;;0.40;0.40;;;16.10;43.90;;;;;;4998003;28;20482;-71
2021/05/09 06:06:17;;;;;;;1.45;0.35;;;16.20;43.40;;;;;;4992710;28;20072;-71
2021/05/09 06:08:45;;;;;;;1.55;0.50;;;16.30;43.40;;;;;;4993247;28;20026;-71
2021/05/09 06:11:10;;;;;;;0.70;0.40;;;16.30;43.50;;;;;;4993112;28;20018;-71
2021/05/09 06:13:36;;;;;;;2.22;0.35;;;16.30;43.20;;;;;;4993432;28;20031;-71
2021/05/09 06:16:02;;;;;;;0.68;0.40;;;16.30;43.00;;;;;;4993242;28;20089;-71
2021/05/09 06:18:28;;;;;;;0.40;0.30;;;16.40;43.00;;;;;;4993222;28;20042;-71
2021/05/09 06:20:54;;;;;;;0.75;0.30;;;16.50;42.50;;;;;;4993192;28;20022;-72
2021/05/09 06:23:24;;;;;;;1.38;0.55;;;16.40;42.50;;;;;;4996395;28;20025;-73
2021/05/09 06:25:50;;;;;;;4.63;0.60;;;16.50;45.10;;;;;;4993406;28;20022;-68
2021/05/09 06:28:16;;;;;;;23.95;1.90;;;16.90;48.10;;;;;;4993174;28;20030;-69
2021/05/09 06:30:43;;;;;;;3.40;0.52;;;17.40;48.10;;;;;;4992899;28;20387;-65
2021/05/09 06:33:10;;;;;;;0.30;0.30;;;17.60;47.10;;;;;;4992616;28;20045;-66
2021/05/09 06:35:38;;;;;;;6.45;0.77;;;18.00;49.10;;;;;;4992812;28;20022;-66
2021/05/09 06:38:06;;;;;;;6.90;0.80;;;18.60;48.60;;;;;;4992836;28;20029;-67
2021/05/09 06:40:33;;;;;;;8.73;1.35;;;18.70;44.30;;;;;;5001247;28;20097;-68
2021/05/09 06:43:01;;;;;;;0.17;0.17;;;18.60;48.10;;;;;;4992760;28;20502;-68
2021/05/09 06:45:28;;;;;;;2.22;0.40;;;18.80;46.80;;;;;;4992600;28;20062;-69
2021/05/09 06:47:59;;;;;;;4.28;0.55;;;18.10;43.50;;;;;;4992385;28;20026;-68
2021/05/09 06:50:26;;;;;;;;;;;17.80;41.90;;;;;;4993268;28;20113;-68
2021/05/09 06:52:52;;;;;;;10.38;0.50;;;17.50;42.20;;;;;;4992471;28;19918;-69
2021/05/09 06:55:19;;;;;;;1.83;0.30;;;17.40;42.70;;;;;;4992349;28;20103;-68
2021/05/09 06:57:47;;;;;;;0.75;0.30;;;17.20;42.00;;;;;;4992729;28;20108;-68
2021/05/09 07:00:14;;;;;;;0.13;0.13;;;17.10;42.30;;;;;;4992561;28;20121;-68
2021/05/09 07:02:41;;;;;;;0.45;0.20;;;17.00;42.70;;;;;;4992773;28;20394;-72
2021/05/09 07:05:07;;;;;;;0.30;0.30;;;16.70;40.70;;;;;;4997048;28;20014;-72
2021/05/09 07:07:44;;;;;;;0.63;0.30;;;16.30;40.60;;;;;;4992500;28;20050;-72
2021/05/09 07:10:10;;;;;;;2.60;0.73;;;16.20;41.40;;;;;;4988214;28;20470;-72
2021/05/09 07:12:37;;;;;;;5.00;0.60;;;16.30;45.90;;;;;;4992195;28;20046;-73
2021/05/09 07:15:04;;;;;;;2.08;0.35;;;16.70;46.20;;;;;;4992204;28;20029;-68
2021/05/09 07:17:29;;;;;;;5.82;0.70;;;17.10;48.00;;;;;;4983671;28;20034;-67
2021/05/09 07:19:55;;;;;;;6.57;0.50;;;17.00;45.50;;;;;;4997209;28;20439;-69
2021/05/09 07:22:28;;;;;;;4.03;0.60;;;17.10;44.30;;;;;;4992035;28;20458;-67
2021/05/09 07:24:53;;;;;;;0.30;0.30;;;16.80;42.30;;;;;;4999234;28;20109;-67
2021/05/09 07:27:19;;;;;;;1.20;0.22;;;16.10;41.60;;;;;;4994975;28;20435;-67
2021/05/09 07:29:45;;;;;;;0.20;0.20;;;15.30;41.70;;;;;;4991979;28;20034;-68
2021/05/09 07:32:10;;;;;;;0.25;0.25;;;14.90;42.90;;;;;;4991777;28;20034;-67
2021/05/09 07:34:36;;;;;;;3.83;0.30;;;14.90;43.30;;;;;;4991965;28;20036;-67
2021/05/09 07:37:02;;;;;;;3.35;0.40;;;14.70;42.20;;;;;;4980204;28;20053;-67
2021/05/09 07:39:28;;;;;;;0.30;0.30;;;14.70;43.90;;;;;;4991757;28;20023;-67
2021/05/09 07:41:54;;;;;;;2.42;0.47;;;14.80;42.70;;;;;;4991884;28;20054;-67
2021/05/09 07:44:20;;;;;;;0.52;0.25;;;14.50;42.20;;;;;;4992091;28;20068;-67
2021/05/09 07:46:46;;;;;;;0.70;0.40;;;14.40;45.50;;;;;;5002431;28;20113;-69
2021/05/09 07:49:12;;;;;;;3.22;0.80;;;14.60;47.60;;;;;;5009304;28;20030;-66
2021/05/09 07:51:38;;;;;;;4.00;0.47;;;15.10;51.50;;;;;;4991876;28;20033;-64
2021/05/09 07:54:04;;;;;;;5.38;0.70;;;16.00;51.30;;;;;;4991830;28;20034;-67
2021/05/09 07:56:30;;;;;;;3.20;1.23;;;16.40;49.90;;;;;;4991636;28;20057;-68
2021/05/09 07:58:56;;;;;;;6.25;1.10;;;16.60;49.10;;;;;;4991712;28;20066;-69
2021/05/09 08:01:21;;;;;;;0.50;0.30;;;16.20;45.30;;;;;;4995880;28;20456;-70
2021/05/09 08:03:47;;;;;;;4.72;0.65;;;15.90;44.50;;;;;;5011612;28;20022;-69
2021/05/09 08:06:13;;;;;;;0.32;0.32;;;15.80;48.20;;;;;;4988162;28;20062;-72
2021/05/09 08:08:39;;;;;;;0.63;0.22;;;15.60;44.30;;;;;;4992292;28;20076;-73
2021/05/09 08:11:04;;;;;;;0.50;0.38;;;15.20;42.20;;;;;;4990789;28;20030;-68
2021/05/09 08:13:30;;;;;;;0.70;0.40;;;14.70;42.00;;;;;;4991157;28;20086;-74
2021/05/09 08:15:56;;;;;;;4.97;0.47;;;15.10;48.90;;;;;;4989866;28;20026;-73
2021/05/09 08:18:25;;;;;;;2.15;0.40;;;14.90;42.00;;;;;;4991511;28;20030;-73
2021/05/09 08:20:56;;;;;;;1.75;0.60;;;14.50;42.00;;;;;;4991209;28;20023;-73
2021/05/09 08:23:22;;;;;;;1.92;0.32;;;14.10;41.80;;;;;;4991500;28;20034;-73
2021/05/09 08:25:48;;;;;;;0.30;0.30;;;13.90;42.50;;;;;;4991763;28;20173;-72
2021/05/09 08:28:15;;;;;;;0.68;0.40;;;13.70;41.80;;;;;;4993284;28;20023;-73
2021/05/09 08:30:40;;;;;;;1.02;0.43;;;13.50;42.50;;;;;;5001135;28;20364;-73
2021/05/09 08:33:06;;;;;;;2.08;0.32;;;13.40;42.70;;;;;;4995363;28;20037;-73
2021/05/09 08:35:32;;;;;;;0.38;0.30;;;13.40;42.20;;;;;;4995097;28;20053;-73
2021/05/09 08:37:58;;;;;;;3.22;0.40;;;13.40;42.10;;;;;;4995270;28;20085;-73
2021/05/09 08:40:24;;;;;;;8.10;0.82;;;13.20;42.00;;;;;;4994864;28;20426;-73
2021/05/09 08:42:51;;;;;;;3.03;1.08;;;13.00;42.20;;;;;;4994872;28;20101;-72
2021/05/09 08:45:18;;;;;;;1.33;0.88;;;12.90;42.10;;;;;;4994898;28;20036;-73
2021/05/09 08:47:45;;;;;;;2.83;0.50;;;12.90;42.40;;;;;;4999174;28;20105;-73
2021/05/09 08:50:16;;;;;;;0.55;0.30;;;13.00;42.50;;;;;;5004300;28;20023;-72
2021/05/09 08:52:44;;;;;;;0.45;0.45;;;13.00;42.40;;;;;;5008499;28;20426;-73
2021/05/09 08:55:13;;;;;;;1.55;0.30;;;13.00;42.80;;;;;;4994335;28;20109;-72
2021/05/09 08:57:41;;;;;;;0.63;0.45;;;13.10;42.50;;;;;;4996374;28;20038;-72
2021/05/09 09:00:13;;;;;;;0.75;0.40;;;13.00;42.80;;;;;;5014195;28;20510;-73
2021/05/09 09:02:43;;;;;;;2.30;0.38;;;12.90;43.10;;;;;;4982039;28;20031;-72
2021/05/09 09:05:09;;;;;;;0.30;0.30;;;13.00;43.20;;;;;;4994611;28;20450;-72
2021/05/09 09:07:45;;;;;;;5.07;0.40;;;13.00;42.90;;;;;;4994615;28;20482;-73
2021/05/09 09:10:28;;;;;;;3.50;0.22;;;13.00;43.10;;;;;;4988642;28;20090;-72
2021/05/09 09:12:54;;;;;;;0.60;0.35;;;12.90;42.90;;;;;;5013901;28;20070;-73
2021/05/09 09:15:19;;;;;;;0.30;0.30;;;12.90;43.40;;;;;;5006814;28;20033;-73
2021/05/09 09:17:45;;;;;;;1.17;0.50;;;12.80;43.40;;;;;;5007542;28;20022;-72
2021/05/09 09:20:14;;;;;;;3.15;0.68;;;12.90;43.30;;;;;;5013733;28;20072;-72
2021/05/09 09:23:00;;;;;;;4.20;0.50;;;12.90;43.20;;;;;;5002398;28;20088;-73
2021/05/09 09:25:28;;;;;;;0.82;0.60;;;12.90;42.20;;;;;;4963645;28;20019;-72
2021/05/09 09:27:55;;;;;;;0.52;0.40;;;12.90;41.80;;;;;;4994326;28;20038;-73
2021/05/09 09:30:23;;;;;;;2.15;1.05;;;12.70;41.50;;;;;;4994477;28;20439;-72
2021/05/09 09:33:11;;;;;;;1.02;0.65;;;12.80;41.60;;;;;;4994225;28;20042;-73
2021/05/09 09:35:39;;;;;;;0.77;0.40;;;12.80;41.30;;;;;;4987040;28;20026;-73
2021/05/09 09:38:21;;;;;;;0.40;0.40;;;12.70;41.20;;;;;;5013643;28;20038;-72
2021/05/09 09:41:15;;;;;;;0.25;0.25;;;12.70;41.30;;;;;;4980164;28;20425;-73
2021/05/09 09:43:45;;;;;;;0.77;0.50;;;12.70;42.30;;;;;;4998096;28;20034;-73
2021/05/09 09:46:37;;;;;;;5.00;0.57;;;12.70;41.80;;;;;;5007738;28;20022;-73
2021/05/09 09:49:26;;;;;;;0.45;0.40;;;12.60;41.50;;;;;;4990389;28;20035;-73
2021/05/09 09:52:10;;;;;;;5.47;0.90;;;12.60;41.10;;;;;;5003713;28;20033;-73
2021/05/09 09:54:46;;;;;;;2.10;0.80;;;12.60;41.10;;;;;;5013240;28;20072;-73
2021/05/09 09:57:20;;;;;;;2.85;1.10;;;12.60;41.70;;;;;;5012980;28;20049;-73
2021/05/09 10:00:12;;;;;;;3.38;0.80;;;12.80;41.30;;;;;;4999623;28;20113;-73
2021/05/09 10:02:38;;;;;;;0.50;0.50;;;12.90;41.00;;;;;;5012569;28;20033;-73
2021/05/09 10:05:05;;;;;;;0.57;0.50;;;13.00;40.30;;;;;;5000430;28;20390;-73
2021/05/09 10:07:32;;;;;;;0.40;0.40;;;13.00;40.50;;;;;;5000004;28;20103;-73
2021/05/09 10:09:58;;;;;;;1.23;1.00;;;12.90;40.00;;;;;;4993233;28;20027;-73
2021/05/09 10:12:24;;;;;;;1.02;0.50;;;12.80;39.90;;;;;;5004051;28;20063;-73
2021/05/09 10:14:52;;;;;;;4.50;2.88;;;12.80;40.60;;;;;;4999222;28;20025;-73
2021/05/09 10:17:21;;;;;;;15.20;7.63;;;12.80;40.80;;;;;;5013044;28;20026;-73
2021/05/09 10:19:47;;;;;;;1.13;0.80;;;13.00;40.60;;;;;;4999199;28;20105;-73
2021/05/09 10:22:34;;;;;;;1.10;0.50;;;13.00;41.00;;;;;;5012991;28;20402;-73
2021/05/09 10:25:00;;;;;;;0.30;0.30;;;13.10;40.40;;;;;;4998786;28;20034;-73
2021/05/09 10:27:41;;;;;;;2.67;0.40;;;13.00;40.10;;;;;;5004115;28;20025;-73
2021/05/09 10:30:12;;;;;;;3.55;0.60;;;13.00;39.80;;;;;;4995811;28;20387;-73
2021/05/09 10:32:37;;;;;;;1.45;0.88;;;12.90;40.20;;;;;;5012153;28;20026;-73
2021/05/09 10:35:07;;;;;;;0.35;0.35;;;13.10;40.60;;;;;;5011151;28;20036;-73
2021/05/09 10:40:28;;;;;;;0.35;0.30;;;13.20;39.10;;;;;;4993481;28;20113;-73
2021/05/09 10:43:07;;;;;;;0.90;0.50;;;13.20;39.30;;;;;;5006419;28;20038;-73
2021/05/09 10:45:36;;;;;;;3.65;1.30;;;13.30;39.10;;;;;;5006594;28;20029;-73
2021/05/09 10:48:18;;;;;;;1.42;0.70;;;13.30;39.00;;;;;;4999774;28;20092;-73
2021/05/09 10:51:05;;;;;;;1.63;0.50;;;13.30;39.00;;;;;;5012331;28;20026;-73
2021/05/09 10:53:34;;;;;;;2.08;0.47;;;13.30;39.00;;;;;;5002086;28;20077;-73
2021/05/09 10:56:04;;;;;;;1.77;0.30;;;13.40;39.00;;;;;;4994465;28;20414;-73
2021/05/09 10:58:46;;;;;;;0.60;0.40;;;13.40;38.80;;;;;;5012300;28;20116;-73
2021/05/09 11:01:19;;;;;;;0.80;0.32;;;13.30;37.80;;;;;;5011920;28;20050;-73
2021/05/09 11:03:45;;;;;;;1.15;0.32;;;13.20;37.80;;;;;;5012149;28;20033;-73
2021/05/09 11:06:37;;;;;;;2.88;0.40;;;13.20;38.10;;;;;;4996419;28;20101;-73
2021/05/09 11:09:07;;;;;;;0.90;0.40;;;13.20;38.40;;;;;;4995641;28;20046;-73
2021/05/09 11:11:34;;;;;;;5.47;0.50;;;13.20;38.00;;;;;;4997794;28;20022;-73
2021/05/09 11:14:00;;;;;;;2.60;0.40;;;13.20;37.80;;;;;;4994234;28;20103;-73
2021/05/09 11:16:34;;;;;;;0.50;0.50;;;13.20;37.40;;;;;;5011665;28;20029;-73
2021/05/09 11:19:13;;;;;;;2.05;0.40;;;13.20;36.80;;;;;;5011947;28;20120;-73
2021/05/09 11:21:45;;;;;;;0.30;0.30;;;13.20;37.80;;;;;;5008378;28;20691;-73
2021/05/09 11:24:27;;;;;;;0.45;0.40;;;13.10;37.00;;;;;;4992483;28;20026;-73
2021/05/09 11:26:58;;;;;;;0.65;0.38;;;13.10;37.20;;;;;;4996631;28;20026;-73
2021/05/09 11:29:29;;;;;;;0.40;0.40;;;13.10;37.40;;;;;;5000589;28;20033;-73
2021/05/09 11:31:58;;;;;;;0.40;0.40;;;13.20;37.30;;;;;;4992216;28;20382;-73
2021/05/09 11:34:26;;;;;;;0.30;0.30;;;13.20;36.50;;;;;;5001970;28;20030;-73
2021/05/09 11:36:54;;;;;;;0.45;0.38;;;13.30;36.50;;;;;;5009046;28;20034;-73
2021/05/09 11:39:33;;;;;;;0.75;0.40;;;13.30;37.30;;;;;;5000663;28;20030;-73
2021/05/09 11:42:08;;;;;;;6.18;0.60;;;13.30;37.50;;;;;;4997734;28;20421;-73
2021/05/09 11:44:40;;;;;;;2.88;0.50;;;13.30;37.20;;;;;;4984044;28;20034;-73
2021/05/09 11:47:23;;;;;;;0.32;0.30;;;13.20;37.00;;;;;;5011710;28;20061;-73
2021/05/09 11:49:51;;;;;;;1.15;0.40;;;13.20;37.30;;;;;;4986902;28;20030;-73
2021/05/09 11:52:21;;;;;;;0.40;0.30;;;13.20;37.20;;;;;;4998155;28;20023;-73
2021/05/09 11:54:54;;;;;;;2.65;0.60;;;13.30;36.00;;;;;;4984294;28;20040;-73
2021/05/09 11:57:22;;;;;;;0.38;0.30;;;13.30;35.80;;;;;;5011261;28;20088;-73
2021/05/09 11:59:53;;;;;;;0.65;0.60;;;13.30;36.40;;;;;;5011562;28;20390;-73
2021/05/09 12:02:22;;;;;;;0.35;0.30;;;13.40;36.50;;;;;;5011257;28;20478;-73
2021/05/09 12:04:48;;;;;;;0.50;0.40;;;13.30;36.20;;;;;;4994356;28;20034;-73
2021/05/09 12:07:15;;;;;;;1.27;0.50;;;13.30;36.10;;;;;;5006693;28;20022;-73
2021/05/09 12:09:42;;;;;;;0.40;0.40;;;13.40;35.90;;;;;;4998466;28;20406;-73
2021/05/09 12:12:08;;;;;;;0.77;0.45;;;13.30;36.00;;;;;;5004287;28;20024;-73
2021/05/09 12:14:35;;;;;;;1.75;0.40;;;13.40;36.90;;;;;;5013791;28;20026;-73
2021/05/09 12:17:00;;;;;;;0.90;0.40;;;13.40;36.80;;;;;;4968948;28;20018;-73
2021/05/09 12:19:33;;;;;;;0.32;0.32;;;13.40;36.90;;;;;;5002295;28;20076;-73
2021/05/09 12:22:00;;;;;;;1.08;0.50;;;13.40;36.00;;;;;;4981754;28;20117;-73
2021/05/09 12:24:26;;;;;;;4.40;0.40;;;13.50;36.00;;;;;;4995215;28;20613;-73
2021/05/09 12:27:05;;;;;;;3.58;0.60;;;13.50;35.80;;;;;;5013334;28;20029;-73
2021/05/09 12:29:46;;;;;;;7.60;0.43;;;13.50;35.20;;;;;;5014807;28;20523;-73
2021/05/09 12:32:18;;;;;;;;;;;13.50;35.40;;;;;;5015462;28;20030;-73
2021/05/09 12:35:15;;;;;;;0.65;0.30;;;13.30;34.60;;;;;;5002249;28;19906;-73
2021/05/09 12:37:49;;;;;;;2.08;0.68;;;13.20;35.60;;;;;;4984778;28;20022;-73
2021/05/09 12:40:24;;;;;;;1.75;0.40;;;13.20;35.20;;;;;;5011782;28;20026;-73
2021/05/09 12:42:56;;;;;;;0.52;0.47;;;13.20;35.70;;;;;;5005050;28;20030;-73
2021/05/09 12:45:39;;;;;;;2.22;0.50;;;13.20;35.90;;;;;;5007246;28;20022;-73
2021/05/09 12:48:18;;;;;;;3.45;0.60;;;13.30;35.70;;;;;;5014630;28;20060;-73
2021/05/09 12:50:57;;;;;;;0.55;0.40;;;13.30;35.40;;;;;;5000607;28;20038;-73
2021/05/09 12:53:50;;;;;;;0.90;0.47;;;13.20;36.00;;;;;;5014251;28;20065;-73
2021/05/09 12:56:29;;;;;;;0.50;0.50;;;13.20;36.40;;;;;;5009527;28;20068;-73
2021/05/09 12:59:14;;;;;;;0.90;0.75;;;13.20;36.10;;;;;;5006766;28;20026;-73
2021/05/09 13:01:45;;;;;;;3.92;0.50;;;13.20;36.10;;;;;;4988533;28;20033;-73
2021/05/09 13:04:30;;;;;;;0.95;0.50;;;13.30;36.40;;;;;;5014384;28;20034;-73
2021/05/09 13:06:57;;;;;;;0.30;0.30;;;13.30;35.90;;;;;;4983165;28;20026;-73
2021/05/09 13:09:23;;;;;;;1.65;0.50;;;13.30;36.40;;;;;;5008499;28;20037;-73
2021/05/09 13:11:49;;;;;;;0.43;0.43;;;13.30;36.10;;;;;;5014337;28;20026;-73
2021/05/09 13:14:15;;;;;;;1.90;0.40;;;13.30;35.90;;;;;;5014316;28;20042;-73
2021/05/09 13:16:41;;;;;;;0.45;0.38;;;13.30;35.90;;;;;;4999697;28;20373;-73
2021/05/09 13:19:06;;;;;;;3.15;0.50;;;13.30;36.20;;;;;;5014059;28;20028;-73
2021/05/09 13:21:32;;;;;;;0.90;0.52;;;13.30;36.00;;;;;;5011671;28;20026;-73
2021/05/09 13:23:58;;;;;;;0.45;0.35;;;13.40;36.30;;;;;;4994546;28;20528;-73
2021/05/09 13:26:24;;;;;;;8.65;0.60;;;13.40;36.10;;;;;;5007752;28;20026;-72
2021/05/09 13:28:49;;;;;;;1.98;0.60;;;13.50;36.20;;;;;;4994519;28;20373;-73
2021/05/09 13:31:15;;;;;;;3.22;0.60;;;13.60;36.30;;;;;;4988669;28;20603;-73
2021/05/09 13:33:41;;;;;;;2.65;0.55;;;13.60;35.80;;;;;;4999562;28;20121;-73
2021/05/09 13:36:07;;;;;;;10.70;0.60;;;13.60;35.20;;;;;;5003638;28;20105;-73
2021/05/09 13:38:33;;;;;;;3.83;0.30;;;13.60;35.40;;;;;;5010071;28;20026;-73
2021/05/09 13:40:58;;;;;;;1.13;0.50;;;13.60;35.50;;;;;;5005219;28;20500;-73
2021/05/09 13:43:24;;;;;;;1.58;0.50;;;13.50;35.30;;;;;;4994351;28;20026;-73
2021/05/09 13:45:50;;;;;;;2.38;1.02;;;13.50;35.80;;;;;;5009917;28;20394;-73
2021/05/09 13:48:15;;;;;;;0.85;0.60;;;13.40;35.60;;;;;;5005469;28;20030;-73
2021/05/09 13:50:41;;;;;;;2.05;0.60;;;13.40;36.00;;;;;;4993451;28;20507;-73
2021/05/09 13:53:07;;;;;;;11.05;0.93;;;13.40;36.00;;;;;;5000248;28;20030;-73
2021/05/09 13:55:32;;;;;;;1.73;0.50;;;13.40;36.40;;;;;;5000642;28;20097;-73
2021/05/09 13:57:58;;;;;;;1.02;0.50;;;13.40;36.40;;;;;;5011681;28;20022;-73
2021/05/09 14:00:24;;;;;;;2.03;0.43;;;13.50;36.10;;;;;;5012947;28;20474;-73
2021/05/09 14:02:50;;;;;;;3.40;0.70;;;13.50;35.30;;;;;;5013121;28;20038;-73
2021/05/09 14:05:16;;;;;;;2.03;0.40;;;13.50;35.00;;;;;;5004736;28;20510;-72
2021/05/09 14:07:42;;;;;;;15.65;1.30;;;13.50;34.50;;;;;;4993251;28;20030;-73
2021/05/09 14:10:08;;;;;;;2.53;0.55;;;13.60;35.30;;;;;;4999933;28;20033;-72
2021/05/09 14:12:34;;;;;;;1.13;0.50;;;13.70;34.80;;;;;;5012717;28;20482;-73
2021/05/09 14:15:02;;;;;;;0.60;0.60;;;13.70;34.70;;;;;;5008272;28;20035;-73
2021/05/09 14:17:33;;;;;;;0.60;0.50;;;13.70;34.80;;;;;;5003880;28;20022;-73
2021/05/09 14:19:59;;;;;;;;;;;13.70;34.80;;;;;;5013191;28;20528;-73
2021/05/09 14:22:25;;;;;;;2.38;0.40;;;13.70;34.00;;;;;;5003708;28;20374;-73
2021/05/09 14:24:52;;;;;;;0.40;0.40;;;13.70;35.10;;;;;;4994945;28;20081;-73
2021/05/09 14:27:18;;;;;;;0.90;0.40;;;13.70;34.60;;;;;;5004247;28;20382;-73
2021/05/09 14:29:44;;;;;;;6.30;0.52;;;13.70;34.50;;;;;;5006702;28;20026;-73
2021/05/09 14:32:10;;;;;;;0.70;0.70;;;13.70;34.50;;;;;;4992954;28;20037;-73
2021/05/09 14:34:36;;;;;;;10.02;6.57;;;13.70;34.50;;;;;;5004486;28;20034;-73
2021/05/09 14:37:02;;;;;;;7.43;2.53;;;13.70;35.10;;;;;;4994840;28;20022;-73
2021/05/09 14:39:28;;;;;;;4.45;1.15;;;13.70;36.20;;;;;;4992840;28;20034;-73
2021/05/09 14:41:53;;;;;;;5.30;0.70;;;13.70;36.30;;;;;;5006757;28;20117;-73
2021/05/09 14:44:19;;;;;;;3.53;0.77;;;13.80;37.10;;;;;;4996653;28;20037;-74
2021/05/09 14:46:45;;;;;;;3.08;0.50;;;13.90;37.30;;;;;;5011984;28;20040;-73
2021/05/09 14:49:11;;;;;;;1.15;0.45;;;13.80;37.20;;;;;;4996788;28;20033;-73
2021/05/09 14:51:36;;;;;;;2.88;0.70;;;13.80;37.80;;;;;;4992695;28;20057;-73
2021/05/09 14:54:04;;;;;;;7.57;2.40;;;13.70;38.10;;;;;;5006343;28;20037;-73
2021/05/09 14:56:33;;;;;;;2.15;0.65;;;13.70;37.30;;;;;;4984786;28;20084;-73
2021/05/09 14:58:59;;;;;;;19.35;5.90;;;13.70;36.30;;;;;;4994245;28;20026;-73
2021/05/09 15:01:25;;;;;;;1.55;1.08;;;13.70;35.80;;;;;;4992260;28;20042;-72
2021/05/09 15:03:50;;;;;;;1.45;0.73;;;13.90;45.90;;;;;;4986712;28;20061;-71
2021/05/09 15:06:17;;;;;;;4.22;1.75;;;14.10;37.80;;;;;;4992761;28;20064;-70
2021/05/09 15:08:42;;;;;;;6.38;4.82;;;13.80;37.70;;;;;;4992474;28;20390;-70
2021/05/09 15:11:08;;;;;;;5.72;3.53;;;13.60;38.10;;;;;;4992469;28;20022;-70
2021/05/09 15:13:34;;;;;;;0.50;0.50;;;13.60;38.50;;;;;;4992147;28;20045;-70
2021/05/09 15:16:00;;;;;;;0.90;0.65;;;13.60;38.70;;;;;;4992328;28;20386;-70
2021/05/09 15:18:26;;;;;;;2.38;0.70;;;13.50;39.20;;;;;;4974760;28;20022;-70
2021/05/09 15:20:51;;;;;;;2.08;0.57;;;13.40;39.30;;;;;;4995576;28;20057;-70
2021/05/09 15:23:17;;;;;;;1.42;0.50;;;13.30;39.70;;;;;;4995789;28;20034;-70
2021/05/09 15:25:43;;;;;;;2.47;0.60;;;13.30;39.80;;;;;;4992311;28;20022;-70
2021/05/09 15:28:09;;;;;;;4.50;0.63;;;13.30;40.10;;;;;;4992232;28;20038;-70
2021/05/09 15:30:35;;;;;;;1.77;0.50;;;13.30;40.00;;;;;;4991867;28;20023;-70
2021/05/09 15:33:00;;;;;;;1.10;0.60;;;13.20;40.20;;;;;;4992118;28;20035;-70
2021/05/09 15:35:26;;;;;;;0.50;0.50;;;13.20;40.50;;;;;;4991877;28;20030;-70
2021/05/09 15:37:52;;;;;;;1.77;0.43;;;13.20;40.90;;;;;;4991992;28;20101;-71
2021/05/09 15:40:17;;;;;;;5.15;0.55;;;13.30;41.00;;;;;;4992067;28;20062;-70
2021/05/09 15:42:43;;;;;;;1.23;0.60;;;13.30;40.70;;;;;;4992158;28;20054;-70
2021/05/09 15:45:10;;;;;;;0.68;0.50;;;13.30;40.30;;;;;;4974849;28;20037;-71
2021/05/09 15:47:37;;;;;;;0.82;0.57;;;13.20;40.50;;;;;;4983570;28;20035;-70
2021/05/09 15:50:03;;;;;;;3.70;0.60;;;13.10;40.80;;;;;;4991934;28;20027;-71
2021/05/09 15:52:29;;;;;;;0.85;0.60;;;13.10;41.60;;;;;;4986032;28;20097;-73
2021/05/09 15:54:57;;;;;;;1.13;0.73;;;13.00;41.60;;;;;;4991989;28;20026;-70
2021/05/09 15:57:22;;;;;;;1.30;0.50;;;13.60;51.40;;;;;;4991736;28;20058;-73
2021/05/09 15:59:48;;;;;;;2.83;0.40;;;13.90;42.10;;;;;;4991918;28;20026;-73
2021/05/09 16:02:14;;;;;;;4.03;0.63;;;13.60;41.10;;;;;;4992065;28;20033;-73
2021/05/09 16:04:40;;;;;;;1.10;0.60;;;13.50;41.70;;;;;;4991938;28;20057;-74
2021/05/09 16:07:06;;;;;;;1.45;0.75;;;13.40;41.60;;;;;;4991779;28;20026;-73
2021/05/09 16:09:31;;;;;;;5.10;0.57;;;13.20;41.60;;;;;;4991718;28;20065;-74
2021/05/09 16:11:57;;;;;;;0.65;0.50;;;13.20;41.70;;;;;;4991816;28;20025;-73
2021/05/09 16:14:27;;;;;;;1.05;0.50;;;13.10;41.50;;;;;;4991813;28;20057;-73
2021/05/09 16:16:54;;;;;;;5.78;0.88;;;13.10;41.70;;;;;;4983765;28;20023;-73
2021/05/09 16:19:19;;;;;;;4.15;0.70;;;13.00;41.70;;;;;;4991825;28;20026;-73
2021/05/09 16:21:49;;;;;;;1.95;0.40;;;13.00;41.40;;;;;;4974153;28;20030;-73
2021/05/09 16:24:16;;;;;;;5.15;0.85;;;12.90;41.30;;;;;;4974351;28;20486;-73
2021/05/09 16:26:42;;;;;;;1.15;0.63;;;12.80;41.40;;;;;;4991635;28;20042;-73
2021/05/09 16:29:08;;;;;;;0.73;0.50;;;12.80;43.20;;;;;;4989158;28;20490;-69
2021/05/09 16:31:34;;;;;;;2.50;0.70;;;12.80;41.70;;;;;;4968640;28;20034;-71
2021/05/09 16:34:02;;;;;;;2.38;0.68;;;12.80;41.90;;;;;;4991529;28;20057;-70
2021/05/09 16:36:28;;;;;;;2.78;0.70;;;12.80;42.00;;;;;;4991742;28;20383;-70
2021/05/09 16:38:54;;;;;;;5.00;0.90;;;12.80;41.80;;;;;;4991409;28;20027;-74
2021/05/09 16:41:19;;;;;;;2.45;0.80;;;12.80;41.50;;;;;;4991456;28;20481;-74
2021/05/09 16:43:46;;;;;;;3.95;0.70;;;12.70;41.50;;;;;;4991454;28;20117;-74
2021/05/09 16:46:12;;;;;;;8.60;0.60;;;12.60;41.60;;;;;;4991728;28;20395;-74
2021/05/09 16:48:38;;;;;;;3.75;0.55;;;12.50;41.80;;;;;;4991615;28;20026;-75
2021/05/09 16:51:04;;;;;;;0.50;0.50;;;12.50;41.90;;;;;;4993222;28;20027;-72
2021/05/09 16:56:25;;;;;;;5.00;0.50;;;12.30;41.70;;;;;;4971914;28;20057;-74